sensor_id;sensor_type;location;lat;lon;timestamp;pressure;altitude;pressure_sealevel;temperature;humidity
4346;BME280;2186;49.866;7.986;2023-07-31T00:00:58;100047.19;;;20.59;70.84
4346;BME280;2186;49.866;7.986;2023-07-31T00:03:25;100051.03;;;20.68;71.29
4346;BME280;2186;49.866;7.986;2023-07-31T00:05:51;100044.38;;;20.61;71.48
4346;BME280;2186;49.866;7.986;2023-07-31T00:08:18;100045.41;;;20.71;71.04
4346;BME280;2186;49.866;7.986;2023-07-31T00:10:44;100039.94;;;20.60;71.42
4346;BME280;2186;49.866;7.986;2023-07-31T00:13:11;100047.28;;;20.58;71.17
4346;BME280;2186;49.866;7.986;2023-07-31T00:15:38;100045.72;;;20.66;70.47
4346;BME280;2186;49.866;7.986;2023-07-31T00:18:05;100039.50;;;20.53;70.74
4346;BME280;2186;49.866;7.986;2023-07-31T00:20:31;100043.06;;;20.54;71.94
4346;BME280;2186;49.866;7.986;2023-07-31T00:22:58;100044.41;;;20.48;71.41
4346;BME280;2186;49.866;7.986;2023-07-31T00:25:24;100044.41;;;20.48;72.37
4346;BME280;2186;49.866;7.986;2023-07-31T00:27:50;100051.88;;;20.45;71.69
4346;BME280;2186;49.866;7.986;2023-07-31T00:30:17;100048.38;;;20.55;70.37
4346;BME280;2186;49.866;7.986;2023-07-31T00:32:46;100050.19;;;20.55;70.42
4346;BME280;2186;49.866;7.986;2023-07-31T00:35:12;100046.75;;;20.53;71.76
4346;BME280;2186;49.866;7.986;2023-07-31T00:37:39;100047.09;;;20.48;71.41
4346;BME280;2186;49.866;7.986;2023-07-31T00:40:06;100047.50;;;20.55;71.73
4346;BME280;2186;49.866;7.986;2023-07-31T00:42:33;100041.03;;;20.57;72.24
4346;BME280;2186;49.866;7.986;2023-07-31T00:44:59;100038.97;;;20.61;72.32
4346;BME280;2186;49.866;7.986;2023-07-31T00:47:26;100039.19;;;20.58;71.82
4346;BME280;2186;49.866;7.986;2023-07-31T00:49:53;100036.63;;;20.56;71.87
4346;BME280;2186;49.866;7.986;2023-07-31T00:52:20;100029.69;;;20.52;72.35
4346;BME280;2186;49.866;7.986;2023-07-31T00:54:47;100032.59;;;20.62;71.76
4346;BME280;2186;49.866;7.986;2023-07-31T00:57:15;100034.81;;;20.68;71.11
4346;BME280;2186;49.866;7.986;2023-07-31T00:59:41;100042.75;;;20.58;71.74
4346;BME280;2186;49.866;7.986;2023-07-31T01:02:08;100041.59;;;20.50;71.22
4346;BME280;2186;49.866;7.986;2023-07-31T01:04:34;100034.00;;;20.55;71.59
4346;BME280;2186;49.866;7.986;2023-07-31T01:07:14;100044.06;;;20.53;72.09
4346;BME280;2186;49.866;7.986;2023-07-31T01:10:04;100039.41;;;20.55;72.15
4346;BME280;2186;49.866;7.986;2023-07-31T01:12:34;100037.75;;;20.65;70.77
4346;BME280;2186;49.866;7.986;2023-07-31T01:15:05;100042.53;;;20.61;71.91
4346;BME280;2186;49.866;7.986;2023-07-31T01:17:32;100030.63;;;20.64;71.75
4346;BME280;2186;49.866;7.986;2023-07-31T01:20:03;100033.31;;;20.64;71.21
4346;BME280;2186;49.866;7.986;2023-07-31T01:28:11;100035.31;;;20.49;71.95
4346;BME280;2186;49.866;7.986;2023-07-31T01:30:45;100015.22;;;20.40;72.50
4346;BME280;2186;49.866;7.986;2023-07-31T01:33:15;100020.09;;;20.48;72.16
4346;BME280;2186;49.866;7.986;2023-07-31T01:35:45;100020.97;;;20.49;71.34
4346;BME280;2186;49.866;7.986;2023-07-31T01:38:12;100017.41;;;20.48;72.17
4346;BME280;2186;49.866;7.986;2023-07-31T01:40:41;100025.16;;;20.40;73.61
4346;BME280;2186;49.866;7.986;2023-07-31T01:43:08;100012.00;;;20.35;72.95
4346;BME280;2186;49.866;7.986;2023-07-31T01:45:35;100007.38;;;20.25;73.10
4346;BME280;2186;49.866;7.986;2023-07-31T01:48:01;100010.84;;;20.27;73.69
4346;BME280;2186;49.866;7.986;2023-07-31T01:50:28;100002.56;;;20.17;73.23
4346;BME280;2186;49.866;7.986;2023-07-31T01:52:54;100011.50;;;20.43;72.34
4346;BME280;2186;49.866;7.986;2023-07-31T01:55:21;100001.09;;;20.37;72.62
4346;BME280;2186;49.866;7.986;2023-07-31T01:57:47;100005.91;;;20.21;72.96
4346;BME280;2186;49.866;7.986;2023-07-31T02:00:14;100000.16;;;20.25;73.42
4346;BME280;2186;49.866;7.986;2023-07-31T02:02:41;99992.78;;;20.27;73.59
4346;BME280;2186;49.866;7.986;2023-07-31T02:05:07;99987.84;;;20.21;73.53
4346;BME280;2186;49.866;7.986;2023-07-31T02:07:34;99985.91;;;20.23;74.08
4346;BME280;2186;49.866;7.986;2023-07-31T02:10:00;99986.66;;;20.25;73.62
4346;BME280;2186;49.866;7.986;2023-07-31T02:12:27;99984.94;;;20.24;73.89
4346;BME280;2186;49.866;7.986;2023-07-31T02:14:56;99981.16;;;20.14;73.85
4346;BME280;2186;49.866;7.986;2023-07-31T02:17:23;99976.31;;;20.19;73.78
4346;BME280;2186;49.866;7.986;2023-07-31T02:19:49;99978.81;;;20.09;74.56
4346;BME280;2186;49.866;7.986;2023-07-31T02:22:16;99982.69;;;20.18;74.02
4346;BME280;2186;49.866;7.986;2023-07-31T02:24:42;99970.72;;;20.09;74.64
4346;BME280;2186;49.866;7.986;2023-07-31T02:27:09;99969.13;;;20.07;73.93
4346;BME280;2186;49.866;7.986;2023-07-31T02:29:35;99968.25;;;20.06;74.60
4346;BME280;2186;49.866;7.986;2023-07-31T02:32:02;99971.69;;;20.08;75.28
4346;BME280;2186;49.866;7.986;2023-07-31T02:34:28;99977.09;;;20.08;75.47
4346;BME280;2186;49.866;7.986;2023-07-31T02:36:55;99973.41;;;20.09;75.50
4346;BME280;2186;49.866;7.986;2023-07-31T02:39:21;99981.63;;;20.08;75.64
4346;BME280;2186;49.866;7.986;2023-07-31T02:41:48;99986.41;;;20.04;75.45
4346;BME280;2186;49.866;7.986;2023-07-31T02:44:14;99989.63;;;20.09;76.48
4346;BME280;2186;49.866;7.986;2023-07-31T02:46:40;99982.09;;;20.02;75.27
4346;BME280;2186;49.866;7.986;2023-07-31T02:49:07;99983.81;;;20.03;75.35
4346;BME280;2186;49.866;7.986;2023-07-31T02:51:34;99985.00;;;19.99;75.74
4346;BME280;2186;49.866;7.986;2023-07-31T02:54:00;99982.03;;;20.15;75.01
4346;BME280;2186;49.866;7.986;2023-07-31T02:56:26;99981.63;;;20.08;75.94
4346;BME280;2186;49.866;7.986;2023-07-31T02:58:53;99979.41;;;20.02;75.99
4346;BME280;2186;49.866;7.986;2023-07-31T03:01:20;99976.69;;;20.02;77.11
4346;BME280;2186;49.866;7.986;2023-07-31T03:03:47;99979.94;;;19.94;76.36
4346;BME280;2186;49.866;7.986;2023-07-31T03:06:13;99988.56;;;19.99;77.78
4346;BME280;2186;49.866;7.986;2023-07-31T03:08:40;99990.09;;;19.91;80.17
4346;BME280;2186;49.866;7.986;2023-07-31T03:11:06;99977.59;;;19.90;78.89
4346;BME280;2186;49.866;7.986;2023-07-31T03:13:33;99970.13;;;19.80;79.02
4346;BME280;2186;49.866;7.986;2023-07-31T03:15:59;99970.47;;;19.89;80.60
4346;BME280;2186;49.866;7.986;2023-07-31T03:18:25;99976.28;;;19.82;81.67
4346;BME280;2186;49.866;7.986;2023-07-31T03:20:52;99975.13;;;19.74;79.30
4346;BME280;2186;49.866;7.986;2023-07-31T03:23:18;99975.00;;;19.75;78.92
4346;BME280;2186;49.866;7.986;2023-07-31T03:28:24;99980.06;;;19.67;79.29
4346;BME280;2186;49.866;7.986;2023-07-31T03:30:51;99979.63;;;19.73;80.27
4346;BME280;2186;49.866;7.986;2023-07-31T03:33:18;99971.25;;;19.65;79.03
4346;BME280;2186;49.866;7.986;2023-07-31T03:35:45;99973.94;;;19.65;79.96
4346;BME280;2186;49.866;7.986;2023-07-31T03:38:12;99973.78;;;19.54;79.39
4346;BME280;2186;49.866;7.986;2023-07-31T03:40:39;99976.50;;;19.54;80.09
4346;BME280;2186;49.866;7.986;2023-07-31T03:43:05;99968.00;;;19.47;80.79
4346;BME280;2186;49.866;7.986;2023-07-31T03:45:36;99976.59;;;19.52;81.82
4346;BME280;2186;49.866;7.986;2023-07-31T03:48:03;99981.38;;;19.49;79.78
4346;BME280;2186;49.866;7.986;2023-07-31T03:50:30;99971.44;;;19.49;79.86
4346;BME280;2186;49.866;7.986;2023-07-31T03:52:57;99973.78;;;19.54;79.12
4346;BME280;2186;49.866;7.986;2023-07-31T03:55:23;99981.66;;;19.44;79.21
4346;BME280;2186;49.866;7.986;2023-07-31T03:57:49;99984.69;;;19.52;79.98
4346;BME280;2186;49.866;7.986;2023-07-31T04:00:16;99973.47;;;19.46;80.80
4346;BME280;2186;49.866;7.986;2023-07-31T04:02:42;99967.75;;;19.50;80.67
4346;BME280;2186;49.866;7.986;2023-07-31T04:05:09;99965.72;;;19.54;79.18
4346;BME280;2186;49.866;7.986;2023-07-31T04:07:37;99966.78;;;19.51;79.30
4346;BME280;2186;49.866;7.986;2023-07-31T04:10:03;99965.31;;;19.60;79.84
4346;BME280;2186;49.866;7.986;2023-07-31T04:12:30;99955.91;;;19.66;78.79
4346;BME280;2186;49.866;7.986;2023-07-31T04:14:56;99954.50;;;19.73;79.46
4346;BME280;2186;49.866;7.986;2023-07-31T04:17:23;99954.44;;;19.62;78.74
4346;BME280;2186;49.866;7.986;2023-07-31T04:19:49;99954.84;;;19.68;79.18
4346;BME280;2186;49.866;7.986;2023-07-31T04:22:16;99951.84;;;19.60;78.76
4346;BME280;2186;49.866;7.986;2023-07-31T04:24:42;99943.84;;;19.59;79.08
4346;BME280;2186;49.866;7.986;2023-07-31T04:27:09;99946.97;;;19.65;79.50
4346;BME280;2186;49.866;7.986;2023-07-31T04:29:35;99946.00;;;19.66;79.23
4346;BME280;2186;49.866;7.986;2023-07-31T04:32:02;99946.00;;;19.66;78.90
4346;BME280;2186;49.866;7.986;2023-07-31T04:34:28;99936.81;;;19.69;79.50
4346;BME280;2186;49.866;7.986;2023-07-31T04:36:55;99938.13;;;19.76;78.85
4346;BME280;2186;49.866;7.986;2023-07-31T04:39:21;99938.00;;;19.77;79.40
4346;BME280;2186;49.866;7.986;2023-07-31T04:41:47;99943.63;;;19.74;78.68
4346;BME280;2186;49.866;7.986;2023-07-31T04:44:14;99942.41;;;19.78;78.43
4346;BME280;2186;49.866;7.986;2023-07-31T04:46:40;99941.56;;;19.78;78.40
4346;BME280;2186;49.866;7.986;2023-07-31T04:49:07;99947.72;;;19.55;78.59
4346;BME280;2186;49.866;7.986;2023-07-31T04:51:34;99942.97;;;19.71;77.99
4346;BME280;2186;49.866;7.986;2023-07-31T04:54:00;99957.53;;;19.68;79.40
4346;BME280;2186;49.866;7.986;2023-07-31T04:56:27;99956.91;;;19.65;79.16
4346;BME280;2186;49.866;7.986;2023-07-31T04:58:53;99952.59;;;19.62;78.44
4346;BME280;2186;49.866;7.986;2023-07-31T05:01:20;99961.41;;;19.77;78.45
4346;BME280;2186;49.866;7.986;2023-07-31T05:03:46;99944.88;;;19.81;78.86
4346;BME280;2186;49.866;7.986;2023-07-31T05:06:13;99949.88;;;19.75;78.74
4346;BME280;2186;49.866;7.986;2023-07-31T05:08:41;99946.53;;;19.59;78.39
4346;BME280;2186;49.866;7.986;2023-07-31T05:11:07;99944.63;;;19.61;78.63
4346;BME280;2186;49.866;7.986;2023-07-31T05:13:34;99946.09;;;19.65;79.13
4346;BME280;2186;49.866;7.986;2023-07-31T05:16:00;99945.13;;;19.66;78.32
4346;BME280;2186;49.866;7.986;2023-07-31T05:18:29;99950.19;;;19.70;79.09
4346;BME280;2186;49.866;7.986;2023-07-31T05:20:55;99942.84;;;19.60;78.69
4346;BME280;2186;49.866;7.986;2023-07-31T05:23:21;99943.94;;;19.70;78.16
4346;BME280;2186;49.866;7.986;2023-07-31T05:25:48;99946.69;;;19.94;78.05
4346;BME280;2186;49.866;7.986;2023-07-31T05:28:14;99944.34;;;19.89;77.66
4346;BME280;2186;49.866;7.986;2023-07-31T05:30:41;99941.19;;;19.95;78.23
4346;BME280;2186;49.866;7.986;2023-07-31T05:33:07;99937.97;;;19.90;78.33
4346;BME280;2186;49.866;7.986;2023-07-31T05:35:34;99939.81;;;19.90;78.16
4346;BME280;2186;49.866;7.986;2023-07-31T05:38:00;99941.81;;;19.99;77.64
4346;BME280;2186;49.866;7.986;2023-07-31T05:40:27;99930.88;;;20.13;77.60
4346;BME280;2186;49.866;7.986;2023-07-31T05:42:53;99928.78;;;20.29;77.59
4346;BME280;2186;49.866;7.986;2023-07-31T05:45:20;99926.91;;;20.06;77.47
4346;BME280;2186;49.866;7.986;2023-07-31T05:47:46;99918.47;;;20.10;77.81
4346;BME280;2186;49.866;7.986;2023-07-31T05:50:13;99910.84;;;20.04;78.40
4346;BME280;2186;49.866;7.986;2023-07-31T05:52:40;99909.75;;;20.07;77.88
4346;BME280;2186;49.866;7.986;2023-07-31T05:55:07;99908.53;;;20.11;78.21
4346;BME280;2186;49.866;7.986;2023-07-31T05:57:34;99910.06;;;20.15;78.49
4346;BME280;2186;49.866;7.986;2023-07-31T06:00:01;99911.06;;;20.25;77.80
4346;BME280;2186;49.866;7.986;2023-07-31T06:02:27;99900.22;;;20.38;76.84
4346;BME280;2186;49.866;7.986;2023-07-31T06:04:54;99918.69;;;20.44;76.37
4346;BME280;2186;49.866;7.986;2023-07-31T06:07:20;99905.88;;;20.59;76.42
4346;BME280;2186;49.866;7.986;2023-07-31T06:09:47;99904.22;;;20.80;75.99
4346;BME280;2186;49.866;7.986;2023-07-31T06:12:13;99908.91;;;20.89;76.07
4346;BME280;2186;49.866;7.986;2023-07-31T06:14:40;99911.63;;;20.89;75.58
4346;BME280;2186;49.866;7.986;2023-07-31T06:17:07;99904.50;;;20.88;74.59
4346;BME280;2186;49.866;7.986;2023-07-31T06:19:33;99904.34;;;21.25;73.91
4346;BME280;2186;49.866;7.986;2023-07-31T06:21:59;99902.47;;;21.14;75.14
4346;BME280;2186;49.866;7.986;2023-07-31T06:24:27;99910.91;;;21.10;74.13
4346;BME280;2186;49.866;7.986;2023-07-31T06:26:54;99903.25;;;20.92;74.38
4346;BME280;2186;49.866;7.986;2023-07-31T06:29:20;99901.81;;;20.99;74.03
4346;BME280;2186;49.866;7.986;2023-07-31T06:31:47;99908.75;;;21.37;74.18
4346;BME280;2186;49.866;7.986;2023-07-31T06:34:14;99903.50;;;21.80;72.63
4346;BME280;2186;49.866;7.986;2023-07-31T06:36:40;99903.97;;;21.74;71.90
4346;BME280;2186;49.866;7.986;2023-07-31T06:39:07;99916.00;;;22.15;71.21
4346;BME280;2186;49.866;7.986;2023-07-31T06:41:35;99912.69;;;22.00;72.00
4346;BME280;2186;49.866;7.986;2023-07-31T06:44:01;99906.09;;;21.71;71.53
4346;BME280;2186;49.866;7.986;2023-07-31T06:46:28;99903.50;;;21.58;72.90
4346;BME280;2186;49.866;7.986;2023-07-31T06:48:54;99911.25;;;21.74;71.73
4346;BME280;2186;49.866;7.986;2023-07-31T06:51:21;99902.50;;;21.70;71.66
4346;BME280;2186;49.866;7.986;2023-07-31T06:53:48;99903.72;;;21.88;71.53
4346;BME280;2186;49.866;7.986;2023-07-31T06:56:15;99902.38;;;21.72;71.82
4346;BME280;2186;49.866;7.986;2023-07-31T06:58:41;99904.34;;;21.81;71.92
4346;BME280;2186;49.866;7.986;2023-07-31T07:01:08;99904.97;;;21.73;71.95
4346;BME280;2186;49.866;7.986;2023-07-31T07:03:34;99904.38;;;21.70;71.89
4346;BME280;2186;49.866;7.986;2023-07-31T07:06:01;99899.41;;;21.97;70.81
4346;BME280;2186;49.866;7.986;2023-07-31T07:08:27;99905.09;;;21.83;72.33
4346;BME280;2186;49.866;7.986;2023-07-31T07:10:54;99899.25;;;22.21;71.97
4346;BME280;2186;49.866;7.986;2023-07-31T07:13:21;99903.13;;;22.39;71.05
4346;BME280;2186;49.866;7.986;2023-07-31T07:15:51;99896.75;;;22.61;70.41
4346;BME280;2186;49.866;7.986;2023-07-31T07:18:18;99886.34;;;22.77;69.13
4346;BME280;2186;49.866;7.986;2023-07-31T07:20:50;99882.19;;;23.15;68.73
4346;BME280;2186;49.866;7.986;2023-07-31T07:23:17;99884.78;;;23.17;68.28
4346;BME280;2186;49.866;7.986;2023-07-31T07:25:44;99873.88;;;22.86;67.61
4346;BME280;2186;49.866;7.986;2023-07-31T07:28:11;99876.38;;;22.78;69.17
4346;BME280;2186;49.866;7.986;2023-07-31T07:30:38;99860.09;;;22.99;69.17
4346;BME280;2186;49.866;7.986;2023-07-31T07:33:04;99863.53;;;23.01;68.61
4346;BME280;2186;49.866;7.986;2023-07-31T07:35:35;99856.88;;;23.05;67.72
4346;BME280;2186;49.866;7.986;2023-07-31T07:38:02;99859.94;;;22.91;68.72
4346;BME280;2186;49.866;7.986;2023-07-31T07:40:29;99855.19;;;22.51;70.15
4346;BME280;2186;49.866;7.986;2023-07-31T07:42:56;99853.81;;;22.57;69.57
4346;BME280;2186;49.866;7.986;2023-07-31T07:45:22;99847.91;;;22.72;70.53
4346;BME280;2186;49.866;7.986;2023-07-31T07:47:49;99851.44;;;22.63;70.49
4346;BME280;2186;49.866;7.986;2023-07-31T07:50:15;99847.34;;;22.69;69.14
4346;BME280;2186;49.866;7.986;2023-07-31T07:52:42;99853.25;;;22.95;69.75
4346;BME280;2186;49.866;7.986;2023-07-31T07:55:08;99854.75;;;22.88;68.88
4346;BME280;2186;49.866;7.986;2023-07-31T07:57:35;99846.56;;;22.99;68.32
4346;BME280;2186;49.866;7.986;2023-07-31T08:00:01;99849.09;;;22.59;70.34
4346;BME280;2186;49.866;7.986;2023-07-31T08:02:28;99834.19;;;23.37;68.83
4346;BME280;2186;49.866;7.986;2023-07-31T08:04:54;99839.94;;;23.53;67.69
4346;BME280;2186;49.866;7.986;2023-07-31T08:07:21;99839.19;;;23.41;66.42
4346;BME280;2186;49.866;7.986;2023-07-31T08:09:47;99830.13;;;23.21;66.74
4346;BME280;2186;49.866;7.986;2023-07-31T08:12:14;99832.34;;;22.86;68.42
4346;BME280;2186;49.866;7.986;2023-07-31T08:14:40;99833.34;;;23.05;67.94
4346;BME280;2186;49.866;7.986;2023-07-31T08:17:07;99837.25;;;22.92;68.73
4346;BME280;2186;49.866;7.986;2023-07-31T08:19:33;99826.25;;;22.52;69.46
4346;BME280;2186;49.866;7.986;2023-07-31T08:22:00;99820.44;;;22.77;70.85
4346;BME280;2186;49.866;7.986;2023-07-31T08:24:26;99818.53;;;22.89;69.50
4346;BME280;2186;49.866;7.986;2023-07-31T08:26:53;99816.72;;;22.99;69.97
4346;BME280;2186;49.866;7.986;2023-07-31T08:29:19;99817.81;;;22.87;68.80
4346;BME280;2186;49.866;7.986;2023-07-31T08:31:46;99811.72;;;23.25;67.96
4346;BME280;2186;49.866;7.986;2023-07-31T08:34:12;99810.41;;;23.19;68.63
4346;BME280;2186;49.866;7.986;2023-07-31T08:36:39;99824.22;;;23.07;69.02
4346;BME280;2186;49.866;7.986;2023-07-31T08:39:06;99821.84;;;22.92;68.55
4346;BME280;2186;49.866;7.986;2023-07-31T08:41:37;99818.94;;;22.84;67.66
4346;BME280;2186;49.866;7.986;2023-07-31T08:44:04;99830.00;;;23.23;67.91
4346;BME280;2186;49.866;7.986;2023-07-31T08:46:32;99822.06;;;23.10;68.44
4346;BME280;2186;49.866;7.986;2023-07-31T08:48:59;99807.78;;;23.39;67.90
4346;BME280;2186;49.866;7.986;2023-07-31T08:51:26;99803.22;;;23.39;66.47
4346;BME280;2186;49.866;7.986;2023-07-31T08:53:53;99806.03;;;23.68;65.51
4346;BME280;2186;49.866;7.986;2023-07-31T08:56:20;99800.81;;;23.46;65.99
4346;BME280;2186;49.866;7.986;2023-07-31T08:58:47;99806.91;;;23.78;64.93
4346;BME280;2186;49.866;7.986;2023-07-31T09:01:14;99809.81;;;23.86;63.79
4346;BME280;2186;49.866;7.986;2023-07-31T09:03:41;99804.69;;;24.03;63.66
4346;BME280;2186;49.866;7.986;2023-07-31T09:06:09;99809.22;;;24.12;62.63
4346;BME280;2186;49.866;7.986;2023-07-31T09:08:37;99799.56;;;24.48;62.30
4346;BME280;2186;49.866;7.986;2023-07-31T09:11:06;99811.84;;;24.62;63.10
4346;BME280;2186;49.866;7.986;2023-07-31T09:13:33;99803.13;;;24.58;62.25
4346;BME280;2186;49.866;7.986;2023-07-31T09:16:00;99796.66;;;24.11;62.84
4346;BME280;2186;49.866;7.986;2023-07-31T09:18:26;99802.59;;;23.66;63.85
4346;BME280;2186;49.866;7.986;2023-07-31T09:21:04;99798.38;;;23.92;64.49
4346;BME280;2186;49.866;7.986;2023-07-31T09:23:42;99790.66;;;24.07;64.80
4346;BME280;2186;49.866;7.986;2023-07-31T09:26:09;99790.38;;;24.20;61.88
4346;BME280;2186;49.866;7.986;2023-07-31T09:28:36;99791.13;;;24.41;62.73
4346;BME280;2186;49.866;7.986;2023-07-31T09:31:03;99785.06;;;24.67;62.96
4346;BME280;2186;49.866;7.986;2023-07-31T09:33:29;99760.50;;;25.05;61.63
4346;BME280;2186;49.866;7.986;2023-07-31T09:36:00;99771.72;;;25.30;60.79
4346;BME280;2186;49.866;7.986;2023-07-31T09:38:27;99771.97;;;25.64;58.49
4346;BME280;2186;49.866;7.986;2023-07-31T09:40:53;99770.16;;;25.55;57.52
4346;BME280;2186;49.866;7.986;2023-07-31T09:43:21;99768.34;;;25.46;58.66
4346;BME280;2186;49.866;7.986;2023-07-31T09:45:48;99752.63;;;25.12;58.29
4346;BME280;2186;49.866;7.986;2023-07-31T09:48:19;99761.44;;;24.77;59.76
4346;BME280;2186;49.866;7.986;2023-07-31T09:50:48;99753.09;;;24.41;60.67
4346;BME280;2186;49.866;7.986;2023-07-31T09:53:15;99751.78;;;24.26;60.92
4346;BME280;2186;49.866;7.986;2023-07-31T09:55:43;99759.94;;;24.45;62.08
4346;BME280;2186;49.866;7.986;2023-07-31T09:58:11;99758.38;;;24.33;61.71
4346;BME280;2186;49.866;7.986;2023-07-31T10:00:38;99751.91;;;23.96;62.21
4346;BME280;2186;49.866;7.986;2023-07-31T10:03:09;99756.34;;;24.06;61.83
4346;BME280;2186;49.866;7.986;2023-07-31T10:05:42;99758.66;;;24.01;62.69
4346;BME280;2186;49.866;7.986;2023-07-31T10:08:10;99759.78;;;24.08;61.60
4346;BME280;2186;49.866;7.986;2023-07-31T10:10:43;99761.81;;;24.16;61.33
4346;BME280;2186;49.866;7.986;2023-07-31T10:13:11;99759.81;;;23.99;60.48
4346;BME280;2186;49.866;7.986;2023-07-31T10:15:38;99766.66;;;24.03;63.06
4346;BME280;2186;49.866;7.986;2023-07-31T10:18:07;99757.34;;;24.05;62.22
4346;BME280;2186;49.866;7.986;2023-07-31T10:20:35;99758.50;;;24.22;61.59
4346;BME280;2186;49.866;7.986;2023-07-31T10:23:01;99753.78;;;24.24;61.08
4346;BME280;2186;49.866;7.986;2023-07-31T10:25:28;99743.50;;;24.08;61.20
4346;BME280;2186;49.866;7.986;2023-07-31T10:27:57;99745.34;;;24.17;62.48
4346;BME280;2186;49.866;7.986;2023-07-31T10:30:27;99749.94;;;24.36;62.09
4346;BME280;2186;49.866;7.986;2023-07-31T10:32:55;99750.50;;;24.11;62.34
4346;BME280;2186;49.866;7.986;2023-07-31T10:35:23;99738.63;;;24.12;61.84
4346;BME280;2186;49.866;7.986;2023-07-31T10:37:51;99730.63;;;24.10;61.29
4346;BME280;2186;49.866;7.986;2023-07-31T10:40:23;99730.06;;;24.16;61.74
4346;BME280;2186;49.866;7.986;2023-07-31T10:42:55;99730.22;;;24.15;61.55
4346;BME280;2186;49.866;7.986;2023-07-31T10:45:42;99731.03;;;24.25;61.58
4346;BME280;2186;49.866;7.986;2023-07-31T10:48:16;99728.50;;;24.33;61.41
4346;BME280;2186;49.866;7.986;2023-07-31T10:51:00;99733.22;;;24.41;61.10
4346;BME280;2186;49.866;7.986;2023-07-31T10:53:30;99712.03;;;24.35;61.34
4346;BME280;2186;49.866;7.986;2023-07-31T10:56:01;99722.50;;;24.30;61.47
4346;BME280;2186;49.866;7.986;2023-07-31T10:58:28;99724.88;;;24.52;60.60
4346;BME280;2186;49.866;7.986;2023-07-31T11:00:56;99731.59;;;24.48;60.38
4346;BME280;2186;49.866;7.986;2023-07-31T11:03:25;99719.19;;;24.26;60.54
4346;BME280;2186;49.866;7.986;2023-07-31T11:08:27;99722.75;;;24.27;60.71
4346;BME280;2186;49.866;7.986;2023-07-31T11:13:51;99712.31;;;24.22;60.76
4346;BME280;2186;49.866;7.986;2023-07-31T11:16:20;99710.91;;;24.28;61.46
4346;BME280;2186;49.866;7.986;2023-07-31T11:18:52;99702.00;;;24.55;59.73
4346;BME280;2186;49.866;7.986;2023-07-31T11:21:23;99704.31;;;24.87;60.50
4346;BME280;2186;49.866;7.986;2023-07-31T11:23:52;99704.41;;;25.04;60.70
4346;BME280;2186;49.866;7.986;2023-07-31T11:26:19;99696.75;;;25.35;58.05
4346;BME280;2186;49.866;7.986;2023-07-31T11:28:47;99697.16;;;25.23;57.61
4346;BME280;2186;49.866;7.986;2023-07-31T11:31:14;99697.75;;;25.17;57.92
4346;BME280;2186;49.866;7.986;2023-07-31T11:33:40;99681.75;;;25.31;57.92
4346;BME280;2186;49.866;7.986;2023-07-31T11:36:14;99693.28;;;25.25;58.57
4346;BME280;2186;49.866;7.986;2023-07-31T11:38:41;99685.78;;;25.09;57.19
4346;BME280;2186;49.866;7.986;2023-07-31T11:41:08;99701.38;;;25.07;57.20
4346;BME280;2186;49.866;7.986;2023-07-31T11:43:34;99696.25;;;24.67;56.88
4346;BME280;2186;49.866;7.986;2023-07-31T11:46:02;99699.59;;;24.79;57.53
4346;BME280;2186;49.866;7.986;2023-07-31T11:48:32;99688.13;;;24.48;58.16
4346;BME280;2186;49.866;7.986;2023-07-31T11:51:08;99680.00;;;24.29;58.91
4346;BME280;2186;49.866;7.986;2023-07-31T11:53:44;99686.69;;;24.54;59.38
4346;BME280;2186;49.866;7.986;2023-07-31T11:56:14;99688.88;;;24.21;58.94
4346;BME280;2186;49.866;7.986;2023-07-31T11:58:43;99687.44;;;24.27;59.21
4346;BME280;2186;49.866;7.986;2023-07-31T12:01:13;99691.59;;;24.21;59.92
4346;BME280;2186;49.866;7.986;2023-07-31T12:03:44;99689.44;;;24.24;60.52
4346;BME280;2186;49.866;7.986;2023-07-31T12:06:11;99690.88;;;24.09;61.01
4346;BME280;2186;49.866;7.986;2023-07-31T12:08:37;99678.56;;;24.24;59.71
4346;BME280;2186;49.866;7.986;2023-07-31T12:11:08;99672.56;;;24.21;60.95
4346;BME280;2186;49.866;7.986;2023-07-31T12:13:36;99670.56;;;24.23;59.83
4346;BME280;2186;49.866;7.986;2023-07-31T12:16:03;99672.28;;;24.24;60.44
4346;BME280;2186;49.866;7.986;2023-07-31T12:18:34;99665.53;;;24.47;58.82
4346;BME280;2186;49.866;7.986;2023-07-31T12:21:04;99672.28;;;24.24;58.98
4346;BME280;2186;49.866;7.986;2023-07-31T12:23:33;99671.28;;;24.35;59.49
4346;BME280;2186;49.866;7.986;2023-07-31T12:26:14;99653.41;;;24.42;60.52
4346;BME280;2186;49.866;7.986;2023-07-31T12:28:46;99657.03;;;24.70;59.12
4346;BME280;2186;49.866;7.986;2023-07-31T12:31:22;99648.59;;;25.00;58.41
4346;BME280;2186;49.866;7.986;2023-07-31T12:33:50;99647.47;;;25.21;57.09
4346;BME280;2186;49.866;7.986;2023-07-31T12:36:22;99638.97;;;25.69;56.72
4346;BME280;2186;49.866;7.986;2023-07-31T12:38:52;99648.78;;;25.80;54.97
4346;BME280;2186;49.866;7.986;2023-07-31T12:41:19;99654.50;;;25.41;55.88
4346;BME280;2186;49.866;7.986;2023-07-31T12:43:45;99657.03;;;25.70;55.96
4346;BME280;2186;49.866;7.986;2023-07-31T12:46:12;99665.38;;;25.41;55.33
4346;BME280;2186;49.866;7.986;2023-07-31T12:48:39;99656.19;;;25.60;55.50
4346;BME280;2186;49.866;7.986;2023-07-31T12:51:06;99648.19;;;25.23;57.06
4346;BME280;2186;49.866;7.986;2023-07-31T12:53:33;99632.81;;;25.67;56.82
4346;BME280;2186;49.866;7.986;2023-07-31T12:56:01;99635.69;;;25.65;56.26
4346;BME280;2186;49.866;7.986;2023-07-31T12:58:27;99637.47;;;25.57;56.69
4346;BME280;2186;49.866;7.986;2023-07-31T13:00:54;99632.56;;;25.25;56.92
4346;BME280;2186;49.866;7.986;2023-07-31T13:03:20;99632.25;;;25.28;57.07
4346;BME280;2186;49.866;7.986;2023-07-31T13:05:47;99617.41;;;24.95;58.26
4346;BME280;2186;49.866;7.986;2023-07-31T13:08:13;99618.38;;;24.94;58.54
4346;BME280;2186;49.866;7.986;2023-07-31T13:10:42;99619.88;;;25.16;58.55
4346;BME280;2186;49.866;7.986;2023-07-31T13:13:09;99621.56;;;25.17;58.59
4346;BME280;2186;49.866;7.986;2023-07-31T13:15:36;99623.38;;;24.98;58.99
4346;BME280;2186;49.866;7.986;2023-07-31T13:18:02;99628.28;;;24.95;58.68
4346;BME280;2186;49.866;7.986;2023-07-31T13:20:29;99629.88;;;24.88;58.94
4346;BME280;2186;49.866;7.986;2023-07-31T13:22:56;99637.69;;;24.73;59.10
4346;BME280;2186;49.866;7.986;2023-07-31T13:25:22;99636.03;;;24.90;59.48
4346;BME280;2186;49.866;7.986;2023-07-31T13:27:49;99641.59;;;24.61;60.34
4346;BME280;2186;49.866;7.986;2023-07-31T13:30:15;99638.72;;;24.62;60.65
4346;BME280;2186;49.866;7.986;2023-07-31T13:32:41;99634.59;;;24.58;60.64
4346;BME280;2186;49.866;7.986;2023-07-31T13:35:08;99635.94;;;24.44;60.69